Meteo Giornale » Osservazioni meteo Australia » Jandakot
ore: 18:00 - Osservazioni Meteo Jandakot
Lat. 32° 6' S Lon. 115° 53' E Alt. 30 metri s.l.m.
15 °C
Coperto
Temp. 24 Ore
7 °C
18 °C
Sud-Ovest
13 Km/h
Dew point 7 °C
Umidità 58 %
Visibilità 10 Km
Il sole sorge alle ore 06:33
Il sole tramonta alle ore 17:59
| Data e Ora | Cielo e Fenomeni | T °C | DP °C | Um. % | Pres. hPa | Vis. km | Vento km/h | |
|---|---|---|---|---|---|---|---|---|
| Oggi h: 18:00 | Coperto | 15 | 7 | 58 | 1023 | 10 | SO 13 | |
| Oggi h: 17:30 | Coperto | 16 | 7 | 55 | 1023 | 10 | SO 16.7 | |
| Oggi h: 17:00 | Coperto | 16 | 6 | 51 | 1023 | 10 | S/SO 16.7 | |
| Oggi h: 16:30 | Coperto | 17 | 7 | 51 | 1023 | 10 | SO 16.7 | |
| Oggi h: 16:00 | Coperto | 17 | 7 | 51 | 1023 | 10 | O/SO 16.7 | |
| Oggi h: 15:30 | Coperto | 17 | 7 | 51 | 1023 | 10 | O/SO 16.7 | |
| Oggi h: 15:00 | Coperto | 17 | 6 | 48 | 1023 | 10 | S 11.1 | |
| Oggi h: 14:30 | Coperto | 17 | 6 | 48 | 1023 | 10 | S 14.8 | |
| Oggi h: 14:00 | Coperto | 17 | 5 | 45 | 1023 | 10 | S/SO 16.7 | |
| Oggi h: 13:30 | Coperto | 17 | 6 | 48 | 1023 | 10 | S/SE 16.7 | |
| Oggi h: 13:00 | Coperto | 17 | 5 | 45 | 1024 | 10 | S 13 | |
| Oggi h: 12:30 | Coperto | 18 | 5 | 42 | 1024 | 10 | S/SO 14.8 | |
| Oggi h: 12:00 | Coperto | 17 | 5 | 45 | 1024 | 10 | S 9.3 | |
| Oggi h: 11:30 | Coperto | 18 | 6 | 45 | 1024 | 10 | N/NE 7.4 | |
| Oggi h: 11:00 | Coperto | 17 | 5 | 45 | 1025 | 10 | E/SE 7.4 | |
| Oggi h: 10:30 | Coperto | 17 | 5 | 45 | 1025 | 10 | E/SE 11.1 | |
| Oggi h: 10:00 | Molto Nuvoloso | 16 | 7 | 55 | 1025 | 10 | NE 13 | |
| Oggi h: 09:30 | Molto Nuvoloso | 15 | 7 | 58 | 1025 | 10 | E 13 | |
| Oggi h: 09:00 | Molto Nuvoloso | 14 | 9 | 71 | 1025 | 10 | E/NE 13 | |
| Oggi h: 08:30 | Coperto | 13 | 9 | 76 | 1025 | 10 | E 7.4 | |
| Oggi h: 08:00 | Molto Nuvoloso | 11 | 9 | 87 | 1025 | 10 | E/SE 11.1 | |
| Oggi h: 07:30 | Sereno | 9 | 8 | 93 | 1025 | 10 | N 3.7 | |
| Oggi h: 07:00 | Sereno | 7 | 6 | 93 | 1024 | 10 | N 0 | |
| Oggi h: 06:30 | Sereno | 7 | 6 | 93 | 1024 | 10 | N 0 | |
| Oggi h: 06:00 | Poco Nuvoloso | 8 | 6 | 87 | 1024 | 10 | N 0 | |
| Oggi h: 05:30 | Poco Nuvoloso | 8 | 7 | 93 | 1024 | 10 | N 0 | |
| Oggi h: 05:00 | Sereno | 9 | 8 | 93 | 1023 | 10 | N 0 | |
| Oggi h: 04:30 | Sereno | 9 | 8 | 93 | 1023 | 10 | SE 7.4 | |
| Oggi h: 04:00 | Poco Nuvoloso | 10 | 9 | 93 | 1023 | 10 | SE 7.4 | |
| Oggi h: 03:30 | Coperto | 11 | 9 | 87 | 1022 | 10 | S/SE 7.4 | |
| Oggi h: 03:00 | Molto Nuvoloso | 12 | 9 | 81 | 1022 | 10 | S 7.4 | |
| Oggi h: 02:30 | Coperto | 12 | 9 | 81 | 1023 | 10 | S 7.4 | |
| Oggi h: 02:00 | Coperto | 12 | 9 | 81 | 1023 | 10 | S 7.4 | |
| Oggi h: 01:30 | Coperto | 12 | 9 | 81 | 1023 | 10 | S 7.4 | |
| Oggi h: 01:00 | Coperto | 12 | 9 | 81 | 1023 | 10 | SE 13 | |
| Oggi h: 00:30 | Coperto | 12 | 9 | 81 | 1023 | 10 | S/SE 18.5 | |
| Oggi h: 00:00 | Coperto | 12 | 8 | 76 | 1023 | 10 | S 24 | |
| Ieri h: 23:30 | Molto Nuvoloso | 12 | 9 | 81 | 1023 | 10 | S 33.3 | |
| Ieri h: 23:22 | Coperto | 12 | 9 | 81 | 1023 | 10 | S 31.5 | |
| Ieri h: 23:15 | Coperto | 12 | 10 | 87 | 1023 | 10 | S 31.5 | |
| Ieri h: 23:05 | Pioviggine | 12 | 10 | 87 | 1023 | 10 | S 33.3 | |
| Ieri h: 23:00 | Pioviggine | 12 | 11 | 93 | 1023 | 10 | S 37 | |
| Ieri h: 22:55 | Pioviggine | 13 | 11 | 87 | 1023 | 10 | S 33.3 | |
| Ieri h: 22:30 | Pioviggine | 14 | 13 | 93 | 1022 | 10 | S 20.3 | |
| Ieri h: 22:19 | Pioviggine | 14 | 12 | 87 | 1022 | 10 | S 24 | |
| Ieri h: 22:00 | Pioviggine | 14 | 12 | 87 | 1022 | 10 | S 25.9 | |
| Ieri h: 21:43 | Pioviggine | 14 | 13 | 93 | 1022 | 10 | S 24 | |
| Ieri h: 21:30 | Pioviggine | 14 | 13 | 93 | 1022 | 10 | S 24 | |
| Ieri h: 21:00 | Pioviggine | 16 | 15 | 93 | 1021 | 10 | S/SO 14.8 | |
| Ieri h: 20:55 | Pioviggine | 16 | 15 | 93 | 1021 | 10 | SO 16.7 | |
| Ieri h: 20:43 | Pioggia | 16 | 15 | 93 | 1021 | 5 | S/SO 16.7 | |
| Ieri h: 20:30 | Pioggia | 16 | 15 | 93 | 1021 | 5 | SO 18.5 | |
| Ieri h: 20:29 | Pioggia | 16 | 15 | 93 | 1021 | 5 | SO 20.3 | |
| Ieri h: 20:00 | Pioggia | 17 | 14 | 82 | 1021 | 8 | O 18.5 | |
| Ieri h: 19:30 | Coperto | 18 | 14 | 77 | 1021 | 10 | O 16.7 | |
| Ieri h: 19:00 | Coperto | 18 | 14 | 77 | 1020 | 10 | O 16.7 | |



